Time;durP1;ratioP1;P1;durP2;ratioP2;P2;SDS_P1;SDS_P2;PMS_P1;PMS_P2;Temp;Humidity;BMP_temperature;BMP_pressure;BME280_temperature;BME280_humidity;BME280_pressure;Samples;Min_cycle;Max_cycle;Signal;HPM_P1;HPM_P2
2022/07/14 00:01:39;;;;;;;0.93;0.50;;;13.20;99.90;;;;;;4998175;28;20193;-65
2022/07/14 00:04:07;;;;;;;1.60;0.70;;;13.30;99.90;;;;;;4996793;28;20083;-65
2022/07/14 00:06:35;;;;;;;0.95;0.40;;;13.40;99.90;;;;;;4997055;28;20026;-65
2022/07/14 00:09:02;;;;;;;2.78;0.73;;;13.40;99.90;;;;;;4989098;28;20042;-64
2022/07/14 00:11:29;;;;;;;2.15;0.38;;;13.30;99.90;;;;;;4987555;28;20026;-65
2022/07/14 00:13:59;;;;;;;0.80;0.30;;;13.40;99.90;;;;;;4984345;28;20019;-65
2022/07/14 00:16:27;;;;;;;1.23;0.40;;;13.30;99.90;;;;;;4986809;28;20030;-65
2022/07/14 00:18:54;;;;;;;0.65;0.32;;;13.30;99.90;;;;;;4986794;28;20038;-67
2022/07/14 00:21:21;;;;;;;1.65;0.40;;;13.40;99.90;;;;;;4986303;28;20915;-64
2022/07/14 00:23:49;;;;;;;0.95;0.38;;;13.50;99.90;;;;;;4985924;28;20133;-66
2022/07/14 00:26:16;;;;;;;1.15;0.65;;;13.50;99.90;;;;;;4986075;28;20031;-66
2022/07/14 00:28:43;;;;;;;1.00;0.40;;;13.50;99.90;;;;;;4985855;28;20031;-67
2022/07/14 00:31:11;;;;;;;3.03;0.73;;;13.60;99.90;;;;;;4982684;28;20506;-68
2022/07/14 00:33:40;;;;;;;2.17;0.65;;;13.70;99.90;;;;;;4986343;28;20033;-65
2022/07/14 00:36:08;;;;;;;2.08;0.52;;;13.90;99.90;;;;;;4987118;28;20030;-65
2022/07/14 00:38:35;;;;;;;1.58;0.90;;;14.00;99.90;;;;;;4985627;28;20026;-66
2022/07/14 00:41:02;;;;;;;1.20;0.60;;;14.10;99.90;;;;;;4985915;28;20524;-68
2022/07/14 00:43:29;;;;;;;1.48;0.60;;;14.20;99.90;;;;;;4983947;28;20030;-70
2022/07/14 00:45:56;;;;;;;1.75;0.40;;;14.30;99.90;;;;;;4985108;28;20038;-67
2022/07/14 00:48:25;;;;;;;1.10;0.50;;;14.30;99.90;;;;;;4981697;28;20057;-68
2022/07/14 00:50:53;;;;;;;0.73;0.50;;;14.30;99.90;;;;;;4968151;28;20124;-67
2022/07/14 00:53:20;;;;;;;1.38;0.50;;;14.30;99.90;;;;;;4985144;28;20333;-67
2022/07/14 00:55:47;;;;;;;0.80;0.50;;;14.40;99.90;;;;;;4986863;28;20040;-69
2022/07/14 00:58:15;;;;;;;0.30;0.30;;;14.70;99.90;;;;;;4985534;28;20122;-69
2022/07/14 01:00:42;;;;;;;3.83;0.90;;;14.90;99.90;;;;;;4984877;28;20030;-68
2022/07/14 01:03:09;;;;;;;2.10;0.90;;;15.20;99.90;;;;;;4985520;28;20022;-65
2022/07/14 01:05:37;;;;;;;2.22;0.70;;;15.40;99.90;;;;;;4985966;28;20532;-68
2022/07/14 01:08:04;;;;;;;2.90;0.85;;;15.40;99.90;;;;;;4985120;28;20364;-68
2022/07/14 01:10:31;;;;;;;5.20;0.98;;;15.40;99.90;;;;;;4983589;28;20112;-73
2022/07/14 01:13:03;;;;;;;1.95;0.45;;;15.40;99.90;;;;;;4984972;28;20022;-69
2022/07/14 01:15:30;;;;;;;2.45;0.60;;;15.70;99.90;;;;;;4637928;28;10000094;-70
2022/07/14 01:17:57;;;;;;;3.22;0.60;;;15.80;99.90;;;;;;4982138;28;20126;-69
2022/07/14 01:20:25;;;;;;;1.02;0.35;;;15.70;99.90;;;;;;4982929;28;20275;-71
2022/07/14 01:22:53;;;;;;;1.65;0.60;;;15.50;99.90;;;;;;4963618;28;20030;-69
2022/07/14 01:25:21;;;;;;;2.70;0.65;;;15.20;99.90;;;;;;4983002;28;20485;-70
2022/07/14 01:27:49;;;;;;;2.70;0.95;;;15.00;99.90;;;;;;4982506;28;20026;-69
2022/07/14 01:30:16;;;;;;;3.50;1.30;;;15.30;99.90;;;;;;4983182;28;20090;-65
2022/07/14 01:32:43;;;;;;;0.80;0.47;;;15.60;99.90;;;;;;4984429;28;20108;-65
2022/07/14 01:35:11;;;;;;;4.65;0.88;;;15.60;99.90;;;;;;4982441;28;20493;-63
2022/07/14 01:37:39;;;;;;;2.20;0.60;;;15.50;99.90;;;;;;4981580;28;20027;-64
2022/07/14 01:40:07;;;;;;;2.38;0.75;;;15.60;99.90;;;;;;4999978;23;20154;-66
2022/07/14 01:42:35;;;;;;;5.07;1.05;;;15.70;99.90;;;;;;5002988;28;20800;-63
2022/07/14 01:45:02;;;;;;;3.50;1.00;;;15.80;99.90;;;;;;5002939;28;20026;-62
2022/07/14 01:47:29;;;;;;;2.20;0.90;;;15.90;99.80;;;;;;5002964;28;20084;-64
2022/07/14 01:49:56;;;;;;;3.50;0.60;;;15.90;99.90;;;;;;5002524;28;20340;-63
2022/07/14 01:52:23;;;;;;;3.40;0.65;;;15.90;99.80;;;;;;5001450;28;20084;-63
2022/07/14 01:54:50;;;;;;;2.15;0.63;;;15.80;99.70;;;;;;5002044;28;20029;-64
2022/07/14 01:57:17;;;;;;;4.47;0.70;;;15.70;99.80;;;;;;5002924;28;20034;-64
2022/07/14 01:59:44;;;;;;;1.52;0.75;;;15.50;99.90;;;;;;5002054;28;20141;-64
2022/07/14 02:02:13;;;;;;;4.32;0.73;;;15.70;99.90;;;;;;5003074;28;20275;-65
2022/07/14 02:04:40;;;;;;;1.85;0.50;;;15.80;99.90;;;;;;5001809;28;20057;-66
2022/07/14 02:07:07;;;;;;;3.15;0.80;;;15.70;99.90;;;;;;5001864;28;20025;-66
2022/07/14 02:12:20;;;;;;;0.82;0.45;;;16.20;99.50;;;;;;5002408;28;20033;-67
2022/07/14 02:14:47;;;;;;;1.27;0.60;;;16.40;97.80;;;;;;5001746;28;20018;-65
2022/07/14 02:17:14;;;;;;;1.30;0.35;;;16.20;98.30;;;;;;5002142;28;20523;-65
2022/07/14 02:19:41;;;;;;;2.47;0.40;;;15.90;98.70;;;;;;5002614;28;20477;-68
2022/07/14 02:22:08;;;;;;;4.57;0.50;;;15.80;98.90;;;;;;5002459;28;20053;-65
2022/07/14 02:24:36;;;;;;;2.45;0.90;;;15.60;98.80;;;;;;5000874;28;20762;-68
2022/07/14 02:27:03;;;;;;;2.28;0.60;;;15.60;99.50;;;;;;5003536;28;20128;-68
2022/07/14 02:29:31;;;;;;;4.88;0.88;;;15.90;99.10;;;;;;5004706;28;20397;-65
2022/07/14 02:31:58;;;;;;;2.60;0.55;;;16.20;98.50;;;;;;5001888;28;20033;-65
2022/07/14 02:34:25;;;;;;;3.03;0.80;;;16.50;97.70;;;;;;5006049;28;20144;-69
2022/07/14 02:36:52;;;;;;;1.88;0.57;;;16.50;98.30;;;;;;5004368;28;20036;-70
2022/07/14 02:39:19;;;;;;;3.10;0.75;;;16.70;97.80;;;;;;5006316;28;20180;-69
2022/07/14 02:41:46;;;;;;;2.60;0.90;;;17.00;98.20;;;;;;5002764;28;20705;-66
2022/07/14 02:44:14;;;;;;;1.10;0.68;;;17.00;96.80;;;;;;5005899;28;20026;-68
2022/07/14 02:46:41;;;;;;;4.32;1.17;;;17.20;97.10;;;;;;5005186;28;20083;-70
2022/07/14 02:49:08;;;;;;;4.68;0.95;;;17.40;96.80;;;;;;5006287;28;20067;-65
2022/07/14 02:51:35;;;;;;;3.72;0.73;;;17.80;95.30;;;;;;5000012;28;20140;-68
2022/07/14 02:54:03;;;;;;;2.83;0.80;;;17.70;95.80;;;;;;5001903;28;20034;-70
2022/07/14 02:56:30;;;;;;;1.40;0.70;;;17.70;95.70;;;;;;5006955;28;20130;-69
2022/07/14 02:58:57;;;;;;;3.70;0.60;;;17.30;95.70;;;;;;5005537;28;20034;-68
2022/07/14 03:01:24;;;;;;;3.78;1.00;;;17.00;96.40;;;;;;5002606;28;20033;-68
2022/07/14 03:03:51;;;;;;;3.28;1.25;;;17.00;97.10;;;;;;5001542;28;20053;-67
2022/07/14 03:06:19;;;;;;;1.13;0.40;;;16.90;96.10;;;;;;5000893;28;20488;-68
2022/07/14 03:08:47;;;;;;;2.40;0.70;;;17.00;96.50;;;;;;5000601;28;20118;-66
2022/07/14 03:11:14;;;;;;;2.33;0.65;;;17.10;96.00;;;;;;5002418;28;20072;-68
2022/07/14 03:13:42;;;;;;;2.30;0.60;;;16.90;96.10;;;;;;4983254;28;20061;-66
2022/07/14 03:16:10;;;;;;;6.85;0.90;;;16.90;96.70;;;;;;5000721;28;20026;-64
2022/07/14 03:18:40;;;;;;;2.35;0.40;;;17.20;97.10;;;;;;5003306;28;20501;-64
2022/07/14 03:21:12;;;;;;;2.97;0.68;;;17.30;95.90;;;;;;5001418;28;20127;-63
2022/07/14 03:23:40;;;;;;;3.35;0.80;;;17.00;95.90;;;;;;5000675;28;20026;-64
2022/07/14 03:26:07;;;;;;;3.60;1.02;;;16.80;97.20;;;;;;5000834;28;20435;-64
2022/07/14 03:28:34;;;;;;;3.95;0.60;;;16.70;97.30;;;;;;4999973;28;20297;-64
2022/07/14 03:31:02;;;;;;;2.80;0.70;;;16.70;97.60;;;;;;5001827;28;20524;-66
2022/07/14 03:33:30;;;;;;;2.80;0.60;;;16.60;97.50;;;;;;4999202;28;20022;-66
2022/07/14 03:35:57;;;;;;;2.75;0.82;;;16.40;97.30;;;;;;5003266;28;20357;-65
2022/07/14 03:38:24;;;;;;;2.38;0.60;;;16.20;97.20;;;;;;4999696;28;20496;-65
2022/07/14 03:40:51;;;;;;;5.55;0.75;;;16.00;97.30;;;;;;5001887;28;20042;-63
2022/07/14 03:43:18;;;;;;;3.90;0.85;;;15.90;97.80;;;;;;5000994;28;20060;-64
2022/07/14 03:45:45;;;;;;;3.30;0.77;;;15.90;97.70;;;;;;5000262;28;20040;-66
2022/07/14 03:48:12;;;;;;;1.52;0.90;;;15.90;98.20;;;;;;5000267;28;20032;-65
2022/07/14 03:50:41;;;;;;;4.63;1.00;;;15.90;98.00;;;;;;5000061;28;20040;-66
2022/07/14 03:53:08;;;;;;;1.63;0.50;;;15.90;97.50;;;;;;5000055;28;20112;-64
2022/07/14 03:55:35;;;;;;;3.00;0.70;;;15.80;97.80;;;;;;4999145;28;20116;-66
2022/07/14 03:58:02;;;;;;;2.53;0.95;;;15.80;98.20;;;;;;5000177;28;20096;-66
2022/07/14 04:00:29;;;;;;;3.10;0.60;;;15.80;98.20;;;;;;5000731;28;20055;-64
2022/07/14 04:02:57;;;;;;;3.75;0.70;;;15.80;98.00;;;;;;4999272;28;20026;-66
2022/07/14 04:05:24;;;;;;;4.72;0.70;;;15.70;97.90;;;;;;4999847;28;20109;-64
2022/07/14 04:07:51;;;;;;;2.90;0.60;;;15.50;98.20;;;;;;4999107;28;20489;-66
2022/07/14 04:10:19;;;;;;;4.10;0.65;;;15.50;98.30;;;;;;5000876;28;20079;-66
2022/07/14 04:12:46;;;;;;;4.13;0.80;;;15.50;98.90;;;;;;5003389;28;20455;-64
2022/07/14 04:15:13;;;;;;;4.30;0.88;;;15.90;98.80;;;;;;5002860;28;20052;-65
2022/07/14 04:17:40;;;;;;;4.70;1.23;;;16.40;97.70;;;;;;5003229;28;20169;-65
2022/07/14 04:20:09;;;;;;;3.88;1.08;;;16.60;97.20;;;;;;5002759;28;20366;-64
2022/07/14 04:22:37;;;;;;;1.73;0.63;;;16.90;96.90;;;;;;5003203;28;20026;-66
2022/07/14 04:25:05;;;;;;;2.90;0.82;;;17.20;96.20;;;;;;5001130;28;20081;-67
2022/07/14 04:27:32;;;;;;;3.83;0.90;;;17.50;95.20;;;;;;5002672;28;20029;-66
2022/07/14 04:29:59;;;;;;;1.77;0.80;;;17.60;95.30;;;;;;5003263;28;20021;-67
2022/07/14 04:32:27;;;;;;;3.25;0.60;;;17.20;95.20;;;;;;5003470;28;20076;-67
2022/07/14 04:34:54;;;;;;;1.67;0.55;;;17.20;95.50;;;;;;5003438;28;20444;-65
2022/07/14 04:37:21;;;;;;;2.70;0.60;;;17.30;95.40;;;;;;5002636;28;20337;-64
2022/07/14 04:39:48;;;;;;;1.17;0.40;;;17.50;94.70;;;;;;5002264;28;20045;-65
2022/07/14 04:42:15;;;;;;;1.33;0.60;;;17.50;94.50;;;;;;5002725;28;20496;-68
2022/07/14 04:44:43;;;;;;;1.45;0.77;;;17.60;93.70;;;;;;4983836;28;20130;-65
2022/07/14 04:47:10;;;;;;;4.78;0.90;;;17.40;94.20;;;;;;5002188;28;20109;-65
2022/07/14 04:52:22;;;;;;;2.17;0.60;;;17.40;94.50;;;;;;5002065;28;20037;-64
2022/07/14 04:54:50;;;;;;;2.20;0.98;;;17.10;94.10;;;;;;5002999;28;20723;-68
2022/07/14 04:57:19;;;;;;;3.28;1.55;;;16.80;94.60;;;;;;5002692;28;20032;-64
2022/07/14 04:59:46;;;;;;;1.05;0.40;;;16.70;95.50;;;;;;5002075;28;20084;-65
2022/07/14 05:02:14;;;;;;;2.70;0.90;;;16.70;95.50;;;;;;4986065;28;20393;-64
2022/07/14 05:04:41;;;;;;;1.77;0.57;;;16.80;95.00;;;;;;5001979;28;20030;-64
2022/07/14 05:07:09;;;;;;;3.40;1.10;;;16.90;94.80;;;;;;5001518;28;20112;-67
2022/07/14 05:09:36;;;;;;;2.97;0.80;;;16.80;95.00;;;;;;5002555;28;20161;-64
2022/07/14 05:12:03;;;;;;;1.50;0.57;;;16.50;95.40;;;;;;5000434;28;20033;-64
2022/07/14 05:14:31;;;;;;;6.32;0.63;;;16.20;96.40;;;;;;5000790;28;20148;-66
2022/07/14 05:16:58;;;;;;;1.35;0.65;;;16.20;96.20;;;;;;5000797;28;20022;-64
2022/07/14 05:19:25;;;;;;;2.53;1.02;;;16.20;96.50;;;;;;5001181;28;20044;-65
2022/07/14 05:21:53;;;;;;;4.25;0.77;;;16.80;95.70;;;;;;5001738;28;20771;-67
2022/07/14 05:24:20;;;;;;;4.65;0.60;;;17.30;95.00;;;;;;5001872;28;20029;-68
2022/07/14 05:26:47;;;;;;;1.48;0.50;;;17.70;94.30;;;;;;4983745;28;20435;-65
2022/07/14 05:29:15;;;;;;;1.23;0.35;;;17.70;93.00;;;;;;4981169;28;20037;-68
2022/07/14 05:31:42;;;;;;;2.55;0.60;;;17.60;94.10;;;;;;5000306;28;20030;-65
2022/07/14 05:34:09;;;;;;;2.70;0.70;;;17.20;94.10;;;;;;4999183;28;20033;-64
2022/07/14 05:36:36;;;;;;;2.42;0.68;;;16.70;94.50;;;;;;5000211;28;20030;-69
2022/07/14 05:39:04;;;;;;;4.03;0.82;;;16.20;95.00;;;;;;4996896;28;20025;-68
2022/07/14 05:41:31;;;;;;;5.07;0.80;;;15.80;94.80;;;;;;5000111;28;20397;-65
2022/07/14 05:43:58;;;;;;;2.80;0.70;;;15.40;95.70;;;;;;4999775;28;20538;-65
2022/07/14 05:46:26;;;;;;;3.53;0.98;;;15.20;95.90;;;;;;5000251;28;20046;-65
2022/07/14 05:48:53;;;;;;;2.25;0.63;;;15.30;95.70;;;;;;4999327;28;20028;-67
2022/07/14 05:51:22;;;;;;;2.30;0.50;;;15.70;95.10;;;;;;4997562;28;20429;-67
2022/07/14 05:53:50;;;;;;;4.15;0.70;;;16.20;94.80;;;;;;4997406;28;20033;-64
2022/07/14 05:56:17;;;;;;;0.75;0.50;;;16.00;94.40;;;;;;5000333;28;20049;-67
2022/07/14 05:58:45;;;;;;;2.40;0.63;;;15.70;95.00;;;;;;5003076;28;20108;-66
2022/07/14 06:01:13;;;;;;;1.35;0.55;;;15.40;95.40;;;;;;5005204;28;21221;-66
2022/07/14 06:03:41;;;;;;;2.97;0.95;;;15.20;96.00;;;;;;5003467;28;20262;-67
2022/07/14 06:06:09;;;;;;;3.72;0.65;;;15.10;96.00;;;;;;5003417;28;20392;-68
2022/07/14 06:08:37;;;;;;;1.25;0.70;;;14.90;96.80;;;;;;5002128;28;20132;-67
2022/07/14 06:11:05;;;;;;;2.33;0.70;;;14.90;96.80;;;;;;5003390;28;20028;-66
2022/07/14 06:13:34;;;;;;;1.38;0.55;;;14.80;96.30;;;;;;5001611;28;20088;-66
2022/07/14 06:16:01;;;;;;;1.02;0.40;;;14.60;96.90;;;;;;5001081;28;20036;-68
2022/07/14 06:18:28;;;;;;;3.83;1.10;;;14.50;96.50;;;;;;5002416;28;20026;-66
2022/07/14 06:20:55;;;;;;;1.17;0.63;;;14.40;96.80;;;;;;5001627;28;20594;-65
2022/07/14 06:23:22;;;;;;;0.73;0.50;;;14.30;97.00;;;;;;5001039;28;20025;-66
2022/07/14 06:25:49;;;;;;;0.75;0.50;;;14.20;97.10;;;;;;5005071;28;20116;-66
2022/07/14 06:28:17;;;;;;;1.15;0.40;;;14.10;97.30;;;;;;5003337;28;20387;-66
2022/07/14 06:30:44;;;;;;;1.38;0.43;;;14.10;97.20;;;;;;5001962;28;20421;-66
2022/07/14 06:33:12;;;;;;;2.28;0.70;;;14.00;97.10;;;;;;5004460;28;20317;-66
2022/07/14 06:35:40;;;;;;;2.67;0.73;;;13.90;96.90;;;;;;5004793;28;20045;-65
2022/07/14 06:38:08;;;;;;;2.92;0.63;;;13.70;97.30;;;;;;5001433;28;20426;-65
2022/07/14 06:40:35;;;;;;;2.17;0.70;;;13.60;97.60;;;;;;5003030;28;20092;-67
2022/07/14 06:43:02;;;;;;;1.67;0.80;;;13.50;98.00;;;;;;5004397;28;20031;-67
2022/07/14 06:45:29;;;;;;;4.95;2.08;;;13.40;98.30;;;;;;5000126;28;20156;-66
2022/07/14 06:47:56;;;;;;;2.83;0.80;;;13.20;98.60;;;;;;5000378;28;20049;-66
2022/07/14 06:50:24;;;;;;;3.05;0.60;;;13.20;98.90;;;;;;5002576;28;20440;-66
2022/07/14 06:52:51;;;;;;;2.83;1.02;;;13.10;98.90;;;;;;5001372;28;20061;-66
2022/07/14 06:55:18;;;;;;;2.42;0.57;;;13.00;99.40;;;;;;5002049;28;20497;-67
2022/07/14 06:57:45;;;;;;;2.90;0.77;;;12.90;99.50;;;;;;5001753;28;20034;-67
2022/07/14 07:00:13;;;;;;;0.90;0.60;;;12.90;99.80;;;;;;5003383;28;20030;-65
2022/07/14 07:02:40;;;;;;;1.98;0.80;;;12.70;99.90;;;;;;5002536;28;20033;-66
2022/07/14 07:07:57;;;;;;;3.10;2.22;;;12.60;99.90;;;;;;5002042;28;20061;-63
2022/07/14 07:10:25;;;;;;;4.25;1.00;;;12.50;99.90;;;;;;5002371;28;20042;-66
2022/07/14 07:12:52;;;;;;;3.35;0.52;;;12.40;99.90;;;;;;5001936;28;20041;-66
2022/07/14 07:15:21;;;;;;;3.13;1.10;;;12.30;99.90;;;;;;4999880;28;20030;-65
2022/07/14 07:17:49;;;;;;;4.00;0.90;;;12.20;99.90;;;;;;5003617;28;20033;-68
2022/07/14 07:20:16;;;;;;;1.90;1.00;;;12.20;99.90;;;;;;5001956;28;20463;-66
2022/07/14 07:22:43;;;;;;;2.00;0.73;;;12.10;99.90;;;;;;4984745;28;20457;-66
2022/07/14 07:25:12;;;;;;;2.10;0.70;;;12.10;99.90;;;;;;5002425;28;20500;-67
2022/07/14 07:27:39;;;;;;;4.75;2.50;;;12.00;99.90;;;;;;5001201;28;20038;-66
2022/07/14 07:30:08;;;;;;;3.08;1.08;;;11.90;99.90;;;;;;5002527;28;20033;-66
2022/07/14 07:32:36;;;;;;;2.63;1.25;;;11.80;99.90;;;;;;4983330;28;20030;-67
2022/07/14 07:35:04;;;;;;;3.78;1.00;;;11.90;99.90;;;;;;5000570;28;20056;-67
2022/07/14 07:37:31;;;;;;;3.65;1.33;;;11.90;99.90;;;;;;5001577;28;20269;-66
2022/07/14 07:40:00;;;;;;;3.80;1.20;;;11.90;99.90;;;;;;4998831;28;20160;-68
2022/07/14 07:42:28;;;;;;;2.33;0.85;;;11.90;99.90;;;;;;5000596;28;20200;-68
2022/07/14 07:44:57;;;;;;;5.25;0.90;;;11.80;99.90;;;;;;5000798;28;20150;-67
2022/07/14 07:47:24;;;;;;;3.20;1.73;;;11.90;99.90;;;;;;5001139;28;20026;-67
2022/07/14 07:49:53;;;;;;;3.50;1.38;;;11.90;99.90;;;;;;5001575;28;20025;-64
2022/07/14 07:52:21;;;;;;;2.22;1.00;;;11.80;99.90;;;;;;5000679;28;20324;-66
2022/07/14 07:54:48;;;;;;;2.17;0.85;;;11.70;99.90;;;;;;5001326;28;20072;-65
2022/07/14 07:57:15;;;;;;;5.30;2.17;;;11.70;99.90;;;;;;5000806;28;20199;-65
2022/07/14 07:59:42;;;;;;;2.47;1.00;;;11.80;99.90;;;;;;5001867;28;20152;-67
2022/07/14 08:02:10;;;;;;;3.33;1.20;;;11.70;99.90;;;;;;5001740;28;20036;-65
2022/07/14 08:04:37;;;;;;;5.75;1.23;;;11.70;99.90;;;;;;5000451;28;20010;-66
2022/07/14 08:07:04;;;;;;;2.47;1.00;;;11.70;99.90;;;;;;5001396;28;20030;-64
2022/07/14 08:09:31;;;;;;;2.35;0.90;;;11.60;99.90;;;;;;5004846;28;20022;-66
2022/07/14 08:11:58;;;;;;;6.95;1.13;;;11.60;99.90;;;;;;5002554;28;20037;-65
2022/07/14 08:17:10;;;;;;;3.20;1.08;;;11.60;99.90;;;;;;5004389;28;20109;-65
2022/07/14 08:19:38;;;;;;;2.75;1.20;;;11.60;99.90;;;;;;5005294;28;20054;-65
2022/07/14 08:22:05;;;;;;;1.92;1.35;;;11.60;99.90;;;;;;5005581;28;20458;-66
2022/07/14 08:24:32;;;;;;;5.20;0.90;;;11.60;99.90;;;;;;5004660;28;20048;-66
2022/07/14 08:27:00;;;;;;;4.55;1.08;;;11.60;99.90;;;;;;5003568;28;20022;-66
2022/07/14 08:29:27;;;;;;;3.90;1.02;;;11.60;99.90;;;;;;5003729;28;20049;-65
2022/07/14 08:31:54;;;;;;;5.28;1.35;;;11.60;99.90;;;;;;5003803;28;20517;-66
2022/07/14 08:34:21;;;;;;;3.25;1.13;;;11.60;99.90;;;;;;5004151;28;20037;-64
2022/07/14 08:36:49;;;;;;;3.17;1.23;;;11.60;99.90;;;;;;5002749;28;20412;-65
2022/07/14 08:39:16;;;;;;;2.08;0.88;;;11.70;99.90;;;;;;4998959;28;20053;-65
2022/07/14 08:41:44;;;;;;;1.90;0.90;;;11.70;99.90;;;;;;5001882;28;20084;-66
2022/07/14 08:44:13;;;;;;;2.80;0.93;;;11.60;99.90;;;;;;5000507;28;20026;-67
2022/07/14 08:46:40;;;;;;;2.88;1.20;;;11.60;99.90;;;;;;4999817;28;20030;-65
2022/07/14 08:49:07;;;;;;;2.47;1.20;;;11.60;99.90;;;;;;5000923;28;20045;-65
2022/07/14 08:51:41;;;;;;;2.75;0.77;;;11.40;99.90;;;;;;4997227;28;20150;-65
2022/07/14 08:54:10;;;;;;;3.90;1.30;;;11.50;99.90;;;;;;4996976;28;20030;-69
2022/07/14 08:56:46;;;;;;;4.18;1.00;;;11.50;99.90;;;;;;4998931;28;20049;-67
2022/07/14 08:59:20;;;;;;;2.35;1.13;;;11.40;99.90;;;;;;4997710;28;20785;-67
2022/07/14 09:01:54;;;;;;;2.00;1.08;;;11.40;99.90;;;;;;4998313;28;20152;-66
2022/07/14 09:04:23;;;;;;;2.78;0.90;;;11.30;99.90;;;;;;4997681;28;20468;-67
2022/07/14 09:07:04;;;;;;;2.55;1.10;;;11.30;99.90;;;;;;4998595;28;20030;-68
2022/07/14 09:09:31;;;;;;;6.15;3.90;;;11.10;99.90;;;;;;4998597;28;20028;-66
2022/07/14 09:12:04;;;;;;;4.47;1.55;;;11.00;99.90;;;;;;4997388;28;20156;-68
2022/07/14 09:17:22;;;;;;;7.53;2.33;;;10.60;99.90;;;;;;4917094;29;20259;-69
2022/07/14 09:20:04;;;;;;;4.93;2.15;;;10.50;99.90;;;;;;4915856;29;20631;-67
2022/07/14 09:22:32;;;;;;;4.70;1.90;;;10.40;99.90;;;;;;4915966;29;20043;-67
2022/07/14 09:25:10;;;;;;;4.25;1.67;;;10.40;99.90;;;;;;4916649;29;20752;-67
2022/07/14 09:27:38;;;;;;;4.40;2.28;;;10.40;99.90;;;;;;4918289;29;20698;-66
2022/07/14 09:30:10;;;;;;;4.13;1.80;;;10.30;99.90;;;;;;4917700;29;20032;-65
2022/07/14 09:32:57;;;;;;;4.82;1.60;;;10.20;99.90;;;;;;4900754;29;20483;-68
2022/07/14 09:35:34;;;;;;;3.63;1.27;;;10.00;99.90;;;;;;4916148;29;20082;-65
2022/07/14 09:38:13;;;;;;;4.85;1.40;;;9.90;99.90;;;;;;4914281;29;20395;-72
2022/07/14 09:40:40;;;;;;;3.50;1.50;;;9.70;99.90;;;;;;4915692;29;20666;-69
2022/07/14 09:43:09;;;;;;;2.53;1.30;;;9.50;99.90;;;;;;4917071;29;20116;-64
2022/07/14 09:45:38;;;;;;;3.63;1.40;;;9.40;99.90;;;;;;4917235;29;20036;-68
2022/07/14 09:48:15;;;;;;;4.15;2.40;;;9.20;99.90;;;;;;4918004;29;20040;-65
2022/07/14 09:51:00;;;;;;;3.30;1.40;;;9.10;99.90;;;;;;4915217;29;20094;-67
2022/07/14 09:53:32;;;;;;;2.85;1.58;;;9.00;99.90;;;;;;4922800;28;20031;-64
2022/07/14 09:56:08;;;;;;;3.72;1.70;;;8.90;99.90;;;;;;4997568;28;20523;-67
2022/07/14 09:58:56;;;;;;;2.08;1.70;;;8.80;99.90;;;;;;4978766;28;20042;-69
2022/07/14 10:01:27;;;;;;;4.22;1.65;;;8.70;99.90;;;;;;4991499;28;20421;-70
2022/07/14 10:03:55;;;;;;;4.18;1.70;;;8.60;99.90;;;;;;4996029;28;20032;-65
2022/07/14 10:06:23;;;;;;;4.88;1.90;;;8.60;99.90;;;;;;4997062;28;20303;-66
2022/07/14 10:08:59;;;;;;;4.18;1.67;;;8.40;99.90;;;;;;4996261;28;20036;-67
2022/07/14 10:11:29;;;;;;;2.08;1.52;;;8.30;99.90;;;;;;4996748;28;20531;-64
2022/07/14 10:13:57;;;;;;;6.57;3.85;;;8.40;99.90;;;;;;4995646;28;20057;-66
2022/07/14 10:16:25;;;;;;;10.00;6.22;;;8.40;99.90;;;;;;4996367;28;20414;-65
2022/07/14 10:18:52;;;;;;;8.00;5.10;;;8.30;99.90;;;;;;4993841;28;20524;-66
2022/07/14 10:21:19;;;;;;;5.57;2.03;;;8.20;99.90;;;;;;4996053;28;20764;-66
2022/07/14 10:23:47;;;;;;;4.28;1.95;;;8.10;99.90;;;;;;4996872;28;20506;-66
2022/07/14 10:26:17;;;;;;;2.97;1.27;;;8.00;99.90;;;;;;4995890;28;20210;-65
2022/07/14 10:28:44;;;;;;;3.45;1.50;;;7.90;99.90;;;;;;4992487;28;20525;-68
2022/07/14 10:31:33;;;;;;;7.82;3.55;;;7.90;99.90;;;;;;4995512;28;20061;-64
2022/07/14 10:34:07;;;;;;;4.80;2.60;;;7.80;99.90;;;;;;4994740;28;20042;-63
2022/07/14 10:36:45;;;;;;;3.90;1.92;;;7.80;99.90;;;;;;4996855;28;20481;-63
2022/07/14 10:39:31;;;;;;;5.07;2.08;;;8.00;99.90;;;;;;4993831;28;20030;-63
2022/07/14 10:42:20;;;;;;;8.55;2.22;;;8.40;99.90;;;;;;4996991;28;20061;-64
2022/07/14 10:44:49;;;;;;;2.08;1.45;;;8.70;99.90;;;;;;5000348;28;20038;-62
2022/07/14 10:47:20;;;;;;;3.83;2.20;;;8.80;99.90;;;;;;4999443;28;20022;-64
2022/07/14 10:50:23;;;;;;;3.05;1.58;;;9.00;99.90;;;;;;4999739;28;20029;-62
2022/07/14 10:53:03;;;;;;;5.07;1.55;;;9.10;99.90;;;;;;4900140;29;20152;-64
2022/07/14 10:55:30;;;;;;;7.85;2.00;;;9.10;99.90;;;;;;4903152;29;20519;-63
2022/07/14 10:58:04;;;;;;;3.22;1.40;;;9.10;99.90;;;;;;4901689;29;20574;-64
2022/07/14 11:03:20;;;;;;;4.57;1.52;;;9.10;99.90;;;;;;4903045;29;20047;-62
2022/07/14 11:06:06;;;;;;;3.38;1.23;;;9.10;99.90;;;;;;4902068;29;20727;-63
2022/07/14 11:08:41;;;;;;;2.58;1.40;;;9.00;99.90;;;;;;4904006;29;20123;-63
2022/07/14 11:11:27;;;;;;;4.68;1.63;;;8.90;99.90;;;;;;4904292;29;20594;-63
2022/07/14 11:14:05;;;;;;;4.20;1.50;;;8.90;99.90;;;;;;4903127;29;20439;-64
2022/07/14 11:16:50;;;;;;;1.90;1.65;;;8.80;99.90;;;;;;4903890;29;20107;-63
2022/07/14 11:19:33;;;;;;;4.45;1.60;;;8.90;99.90;;;;;;4904030;29;20044;-63
2022/07/14 11:22:18;;;;;;;2.55;1.10;;;9.00;99.90;;;;;;4903786;29;20115;-63
2022/07/14 11:24:47;;;;;;;4.00;1.52;;;8.90;99.90;;;;;;4903266;29;20040;-62
2022/07/14 11:27:30;;;;;;;1.48;1.02;;;8.90;99.90;;;;;;4966670;28;20104;-62
2022/07/14 11:30:13;;;;;;;2.63;1.20;;;8.80;99.90;;;;;;5002041;28;20049;-63
2022/07/14 11:32:42;;;;;;;3.10;1.70;;;8.70;99.90;;;;;;5002455;28;20536;-63
2022/07/14 11:38:00;;;;;;;3.78;1.20;;;8.50;99.90;;;;;;4999862;28;20033;-61
2022/07/14 11:40:51;;;;;;;2.55;1.58;;;8.40;99.90;;;;;;5001203;28;20056;-61
2022/07/14 11:43:30;;;;;;;4.70;1.73;;;8.30;99.90;;;;;;5001895;28;20030;-61
2022/07/14 11:46:00;;;;;;;2.50;1.30;;;8.30;99.90;;;;;;5002224;28;20029;-61
2022/07/14 11:48:33;;;;;;;2.75;1.45;;;8.30;99.90;;;;;;4654380;28;10000693;-62
2022/07/14 11:51:10;;;;;;;;;;;8.20;99.90;;;;;;4998267;28;20291;-62
2022/07/14 11:53:38;;;;;;;3.38;1.40;;;8.20;99.90;;;;;;4998161;28;19914;-62
2022/07/14 11:56:07;;;;;;;4.63;1.40;;;8.20;99.90;;;;;;4999944;28;20037;-60
2022/07/14 11:58:39;;;;;;;2.55;1.13;;;8.20;99.90;;;;;;4998166;28;20053;-61
2022/07/14 12:01:07;;;;;;;2.10;1.38;;;8.00;99.90;;;;;;4998848;28;20092;-60
2022/07/14 12:03:35;;;;;;;3.50;1.80;;;8.00;99.90;;;;;;4998617;28;20432;-61
2022/07/14 12:06:04;;;;;;;3.08;1.98;;;8.00;99.90;;;;;;4999250;28;20108;-61
2022/07/14 12:08:33;;;;;;;2.58;1.70;;;8.00;99.90;;;;;;4998449;28;20480;-61
2022/07/14 12:11:08;;;;;;;3.00;1.75;;;8.00;99.90;;;;;;4998865;28;20305;-61
2022/07/14 12:13:51;;;;;;;3.40;1.60;;;8.10;99.90;;;;;;4998914;28;20038;-61
2022/07/14 12:16:19;;;;;;;3.67;1.70;;;8.10;99.90;;;;;;4999403;28;20030;-60
2022/07/14 12:18:48;;;;;;;3.42;1.60;;;8.10;99.90;;;;;;4997602;28;20445;-61
2022/07/14 12:21:16;;;;;;;3.97;1.60;;;8.00;99.90;;;;;;4997183;28;20084;-61
2022/07/14 12:23:55;;;;;;;3.67;1.67;;;8.00;99.90;;;;;;4998376;28;20025;-61
2022/07/14 12:26:24;;;;;;;4.88;2.10;;;8.00;99.90;;;;;;4981543;28;20111;-61
2022/07/14 12:28:53;;;;;;;3.45;1.60;;;8.00;99.90;;;;;;4997415;28;20049;-61
2022/07/14 12:31:21;;;;;;;4.22;1.70;;;8.00;99.90;;;;;;4998545;28;20040;-60
2022/07/14 12:33:54;;;;;;;6.95;1.77;;;8.00;99.90;;;;;;4997696;28;20033;-61
2022/07/14 12:36:27;;;;;;;4.88;1.58;;;8.00;99.90;;;;;;4998069;28;20431;-61
2022/07/14 12:38:55;;;;;;;2.70;1.67;;;8.00;99.90;;;;;;4995564;28;20044;-61
2022/07/14 12:41:26;;;;;;;3.35;1.90;;;7.90;99.90;;;;;;4999017;28;20081;-61
2022/07/14 12:43:56;;;;;;;5.22;1.40;;;8.00;99.90;;;;;;4998800;28;20014;-61
2022/07/14 12:46:24;;;;;;;7.65;1.52;;;8.00;99.90;;;;;;4998839;28;20136;-60
2022/07/14 12:48:52;;;;;;;3.00;1.52;;;8.00;99.90;;;;;;4997772;28;20093;-61
2022/07/14 12:51:24;;;;;;;4.93;1.77;;;7.90;99.90;;;;;;4997841;28;20029;-61
2022/07/14 12:54:19;;;;;;;2.53;1.65;;;8.00;99.90;;;;;;4998573;28;20041;-61
2022/07/14 12:56:53;;;;;;;5.38;1.90;;;7.90;99.90;;;;;;4997303;28;20038;-61
2022/07/14 12:59:26;;;;;;;3.58;1.50;;;7.80;99.90;;;;;;4997380;28;20026;-62
2022/07/14 13:02:10;;;;;;;2.83;1.50;;;7.70;99.90;;;;;;4998719;28;20562;-61
2022/07/14 13:04:38;;;;;;;3.10;1.25;;;7.60;99.90;;;;;;4996721;28;20104;-61
2022/07/14 13:07:25;;;;;;;1.55;1.15;;;7.50;99.90;;;;;;4996279;28;20478;-61
2022/07/14 13:10:15;;;;;;;2.60;1.42;;;7.50;99.90;;;;;;5001215;28;20141;-60
2022/07/14 13:12:55;;;;;;;3.78;1.67;;;7.50;99.90;;;;;;4996990;28;20093;-61
2022/07/14 13:15:30;;;;;;;3.67;1.40;;;7.50;99.90;;;;;;4999512;28;20122;-62
2022/07/14 13:18:05;;;;;;;3.22;1.60;;;7.40;99.90;;;;;;5000156;28;20022;-61
2022/07/14 13:20:50;;;;;;;3.83;1.55;;;7.30;99.90;;;;;;5001801;28;20033;-61
2022/07/14 13:23:40;;;;;;;4.00;1.70;;;7.20;99.90;;;;;;4998725;28;20030;-61